Time;durP1;ratioP1;P1;durP2;ratioP2;P2;SDS_P1;SDS_P2;PMS_P1;PMS_P2;Temp;Humidity;BMP_temperature;BMP_pressure;BME280_temperature;BME280_humidity;BME280_pressure;Samples;Min_cycle;Max_cycle;Signal;HPM_P1;HPM_P2
2022/10/21 04:43:43;;;;;;;9.30;7.80;;;;;;;5.14;100.00;100992.89;1686525;83;21181;-45
2022/10/21 04:46:15;;;;;;;8.80;7.72;;;;;;;5.14;100.00;100995.91;1686619;83;21010;-39
2022/10/21 04:48:43;;;;;;;10.53;7.60;;;;;;;5.13;100.00;100994.16;1697794;83;21129;-38
2022/10/21 04:51:09;;;;;;;9.60;7.15;;;;;;;5.13;100.00;100992.86;1686424;83;21058;-45
2022/10/21 04:53:36;;;;;;;7.97;6.87;;;;;;;5.14;100.00;100993.31;1633540;86;21133;-38
2022/10/21 04:56:03;;;;;;;7.67;6.95;;;;;;;5.14;100.00;100991.59;1673121;83;21565;-46
2022/10/21 04:58:29;;;;;;;7.33;6.62;;;;;;;5.15;100.00;101001.14;1695935;83;21129;-45
2022/10/21 05:00:56;;;;;;;8.25;7.45;;;;;;;5.14;100.00;101004.57;1682794;83;21033;-38
2022/10/21 05:03:23;;;;;;;8.45;7.33;;;;;;;5.14;100.00;101004.57;1676143;84;21575;-38
2022/10/21 05:05:51;;;;;;;7.90;7.10;;;;;;;5.11;100.00;101003.61;1686697;83;21620;-45
2022/10/21 05:08:19;;;;;;;7.03;6.15;;;;;;;5.08;100.00;101002.66;1684439;83;21198;-40
2022/10/21 05:10:46;;;;;;;8.35;7.10;;;;;;;5.07;100.00;101009.09;1707430;83;21053;-38
2022/10/21 05:13:12;;;;;;;8.20;7.22;;;;;;;5.09;100.00;101010.02;1699376;83;21066;-37
2022/10/21 05:15:38;;;;;;;8.25;7.33;;;;;;;5.12;100.00;101010.13;1704102;83;21017;-47
2022/10/21 05:18:05;;;;;;;7.08;5.97;;;;;;;5.15;100.00;101008.92;1690038;83;21051;-45
2022/10/21 05:20:32;;;;;;;8.35;6.20;;;;;;;5.18;100.00;101020.71;1670481;83;21085;-38
2022/10/21 05:22:58;;;;;;;7.67;6.70;;;;;;;5.20;100.00;101024.64;1689533;83;21588;-47
2022/10/21 05:25:25;;;;;;;8.70;6.95;;;;;;;5.21;100.00;101025.98;1680729;83;21097;-46
2022/10/21 05:27:52;;;;;;;8.35;6.80;;;;;;;5.24;100.00;101033.01;1679295;84;21213;-38
2022/10/21 05:30:18;;;;;;;7.85;6.72;;;;;;;5.26;100.00;101032.63;1682709;83;20992;-45
2022/10/21 05:32:45;;;;;;;7.58;6.50;;;;;;;5.26;100.00;101037.81;1643793;85;21093;-38
2022/10/21 05:35:11;;;;;;;7.10;6.40;;;;;;;5.25;100.00;101044.72;1689418;83;21352;-45
2022/10/21 05:37:38;;;;;;;8.78;6.28;;;;;;;5.24;100.00;101052.05;1690819;83;21049;-39
2022/10/21 05:40:06;;;;;;;12.20;10.30;;;;;;;5.22;100.00;101053.72;1698017;83;21013;-45
2022/10/21 05:42:33;;;;;;;10.88;8.93;;;;;;;5.15;100.00;101053.44;1700083;83;21037;-45
2022/10/21 05:45:00;;;;;;;10.45;7.65;;;;;;;5.08;100.00;101061.44;1690157;83;21459;-45
2022/10/21 05:47:27;;;;;;;8.00;6.65;;;;;;;5.03;100.00;101070.77;1652341;85;21920;-38
2022/10/21 05:49:55;;;;;;;8.78;6.70;;;;;;;4.98;100.00;101067.13;1685484;84;21021;-38
2022/10/21 05:52:22;;;;;;;9.30;7.33;;;;;;;4.97;100.00;101071.84;1665287;83;21591;-45
2022/10/21 05:54:48;;;;;;;6.33;5.62;;;;;;;4.97;100.00;101082.22;1691743;83;21593;-38
2022/10/21 05:57:15;;;;;;;10.65;6.87;;;;;;;4.96;100.00;101076.16;1689229;83;21003;-37
2022/10/21 05:59:41;;;;;;;7.78;5.95;;;;;;;4.98;100.00;101091.34;1674164;85;21322;-45
2022/10/21 06:02:09;;;;;;;7.33;6.47;;;;;;;5.00;100.00;101091.00;1695989;83;21084;-45
2022/10/21 06:04:35;;;;;;;7.50;6.45;;;;;;;5.01;100.00;101095.77;1711376;83;20969;-38
2022/10/21 06:07:05;;;;;;;9.10;7.12;;;;;;;5.00;100.00;101094.89;1679025;84;21063;-38
2022/10/21 06:09:32;;;;;;;7.40;6.50;;;;;;;5.00;100.00;101096.20;1685585;85;21512;-45
2022/10/21 06:12:00;;;;;;;6.78;6.05;;;;;;;4.97;100.00;101095.19;1672412;84;21057;-45
2022/10/21 06:14:26;;;;;;;7.70;6.55;;;;;;;4.95;100.00;101094.27;1691649;83;21014;-45
2022/10/21 06:16:55;;;;;;;9.98;7.22;;;;;;;4.95;100.00;101091.67;1634565;86;21048;-38
2022/10/21 06:19:22;;;;;;;7.22;6.50;;;;;;;4.93;100.00;101095.52;1650260;86;21097;-45
2022/10/21 06:21:48;;;;;;;6.87;6.22;;;;;;;4.95;100.00;101095.14;1669979;84;21555;-37
2022/10/21 06:24:15;;;;;;;11.03;7.45;;;;;;;4.96;99.86;101095.61;1674491;85;21552;-38
2022/10/21 06:26:43;;;;;;;16.42;12.45;;;;;;;4.96;99.04;101097.32;1679509;84;20989;-46
2022/10/21 06:29:10;;;;;;;8.80;7.08;;;;;;;4.91;98.87;101091.97;1657795;85;21063;-37
2022/10/21 06:31:36;;;;;;;9.93;6.45;;;;;;;4.86;99.12;101094.80;1667073;84;21523;-38
2022/10/21 06:34:03;;;;;;;11.75;7.40;;;;;;;4.85;98.88;101095.64;1660415;85;21077;-38
2022/10/21 06:36:30;;;;;;;8.33;6.75;;;;;;;4.86;99.11;101100.41;1679463;85;21023;-38
2022/10/21 06:38:57;;;;;;;8.10;6.50;;;;;;;4.88;99.27;101098.36;1697048;84;21053;-38
2022/10/21 06:41:23;;;;;;;10.03;6.47;;;;;;;4.91;99.07;101093.27;1658330;85;21080;-45
2022/10/21 06:43:49;;;;;;;8.10;6.90;;;;;;;4.96;98.53;101097.32;1689974;83;21126;-38
2022/10/21 06:46:16;;;;;;;9.15;7.05;;;;;;;4.96;98.11;101096.02;1686094;84;21017;-38
2022/10/21 06:48:42;;;;;;;8.38;7.47;;;;;;;4.95;98.01;101104.64;1701332;84;21707;-45
2022/10/21 06:51:15;;;;;;;7.10;6.20;;;;;;;4.95;98.09;101105.52;1706865;83;21430;-45
2022/10/21 06:53:42;;;;;;;6.97;6.37;;;;;;;4.94;97.82;101108.06;1640603;86;21079;-45
2022/10/21 06:56:15;;;;;;;6.55;5.95;;;;;;;4.94;97.74;101102.46;1706381;83;21065;-45
2022/10/21 06:58:45;;;;;;;8.60;6.10;;;;;;;4.95;97.60;101101.63;1680544;84;21076;-45
2022/10/21 07:01:15;;;;;;;8.35;6.05;;;;;;;5.01;97.49;101104.85;1689355;84;21081;-38
2022/10/21 07:03:42;;;;;;;6.45;5.85;;;;;;;5.05;97.15;101107.61;1673538;85;21099;-38
2022/10/21 07:06:09;;;;;;;6.65;5.55;;;;;;;5.09;96.37;101111.18;1664053;85;21036;-46
2022/10/21 07:08:38;;;;;;;7.20;5.70;;;;;;;5.12;95.83;101108.70;1675801;85;21547;-37
2022/10/21 07:11:05;;;;;;;10.55;5.12;;;;;;;5.15;95.31;101112.69;1674728;84;21184;-47
2022/10/21 07:13:34;;;;;;;5.22;4.78;;;;;;;5.17;94.82;101120.12;1652365;85;21079;-45
2022/10/21 07:16:11;;;;;;;6.20;5.60;;;;;;;5.22;94.35;101127.66;1702695;83;21447;-46
2022/10/21 07:18:39;;;;;;;6.25;5.17;;;;;;;5.29;93.88;101123.56;1703803;83;21108;-40
2022/10/21 07:21:09;;;;;;;6.17;5.58;;;;;;;5.34;94.01;101129.38;1691160;83;21394;-46
2022/10/21 07:23:38;;;;;;;6.33;5.05;;;;;;;5.41;93.59;101125.28;1687008;84;21652;-46
2022/10/21 07:26:05;;;;;;;5.67;5.17;;;;;;;5.47;93.05;101124.61;1659224;85;21139;-37
2022/10/21 07:28:32;;;;;;;5.12;4.72;;;;;;;5.52;92.04;101129.54;1683221;84;21100;-46
2022/10/21 07:30:59;;;;;;;6.53;5.92;;;;;;;5.53;91.42;101136.48;1679164;84;21053;-37
2022/10/21 07:33:25;;;;;;;5.35;4.85;;;;;;;5.50;90.45;101135.07;1697497;83;21033;-38
2022/10/21 07:36:17;;;;;;;4.85;4.42;;;;;;;5.46;90.32;101141.02;1683718;83;21473;-44
2022/10/21 07:38:45;;;;;;;5.33;4.83;;;;;;;5.46;90.25;101143.61;1653061;85;21688;-37
2022/10/21 07:41:20;;;;;;;7.08;4.83;;;;;;;5.50;89.89;101134.66;1647199;85;22064;-37
2022/10/21 07:43:49;;;;;;;5.65;5.00;;;;;;;5.55;89.79;101135.70;1669712;85;21581;-44
2022/10/21 07:46:18;;;;;;;5.95;4.90;;;;;;;5.66;89.14;101137.36;1645440;86;21170;-37
2022/10/21 07:48:44;;;;;;;5.37;4.35;;;;;;;5.76;88.32;101129.05;1640883;85;21077;-44
2022/10/21 07:51:14;;;;;;;4.67;4.22;;;;;;;5.84;87.78;101127.98;1645047;86;21077;-38
2022/10/21 07:53:41;;;;;;;6.45;4.72;;;;;;;5.96;87.93;101121.03;1636167;86;21134;-38
2022/10/21 07:56:17;;;;;;;4.53;4.08;;;;;;;6.20;87.88;101115.30;1700339;83;21156;-38
2022/10/21 07:58:45;;;;;;;4.58;4.17;;;;;;;6.41;87.45;101111.17;1684911;83;21112;-40
2022/10/21 08:01:12;;;;;;;3.45;3.20;;;;;;;6.53;84.97;101115.43;1685588;83;21535;-39
2022/10/21 08:03:40;;;;;;;4.00;3.60;;;;;;;6.57;84.50;101113.39;1687210;83;21033;-39
2022/10/21 08:06:07;;;;;;;3.83;3.42;;;;;;;6.64;83.24;101114.45;1676534;83;21083;-46
2022/10/21 08:08:35;;;;;;;3.52;3.22;;;;;;;6.76;82.91;101108.30;1666827;84;21076;-38
2022/10/21 08:11:02;;;;;;;3.92;3.50;;;;;;;6.98;82.73;101112.80;1673251;84;21044;-45
2022/10/21 08:13:33;;;;;;;3.47;3.10;;;;;;;7.16;81.87;101109.39;1685355;83;21600;-45
2022/10/21 08:16:00;;;;;;;3.17;2.87;;;;;;;7.30;79.93;101113.64;1697205;83;21617;-46
2022/10/21 08:18:27;;;;;;;3.52;3.22;;;;;;;7.39;79.15;101111.30;1675130;83;21061;-40
2022/10/21 08:20:54;;;;;;;3.17;2.62;;;;;;;7.47;77.14;101102.82;1677509;83;21564;-46
2022/10/21 08:23:21;;;;;;;4.72;2.58;;;;;;;7.50;77.58;101100.73;1689894;83;21650;-46
2022/10/21 08:25:56;;;;;;;5.25;3.37;;;;;;;7.64;77.61;101109.77;1665286;85;21033;-46
2022/10/21 08:28:24;;;;;;;2.52;2.33;;;;;;;7.75;75.61;101095.70;1690069;83;21624;-38
2022/10/21 08:30:51;;;;;;;3.08;2.55;;;;;;;7.72;73.62;101095.22;1683227;83;21037;-46
2022/10/21 08:33:17;;;;;;;3.77;2.83;;;;;;;7.72;74.18;101090.01;1671573;83;21077;-39
2022/10/21 08:35:44;;;;;;;3.40;2.65;;;;;;;7.80;74.25;101088.88;1678140;83;20993;-39
2022/10/21 08:38:10;;;;;;;4.47;2.33;;;;;;;7.88;73.15;101082.53;1681302;84;21064;-46
2022/10/21 08:40:43;;;;;;;1.90;1.80;;;;;;;7.88;71.73;101082.53;1686319;83;21058;-45
2022/10/21 08:43:30;;;;;;;2.30;1.95;;;;;;;7.87;70.25;101093.81;1677635;84;21123;-46
2022/10/21 08:46:13;;;;;;;1.67;1.52;;;;;;;7.90;70.40;101084.78;1692284;83;21647;-38
2022/10/21 08:48:44;;;;;;;3.33;1.92;;;;;;;7.92;69.46;101087.86;1698629;83;21102;-40
2022/10/21 08:51:21;;;;;;;;;;;;;;;7.94;66.50;101080.07;1677324;84;21647;-46
2022/10/21 08:53:48;;;;;;;4.40;1.85;;;;;;;7.93;66.66;101082.22;1677068;84;20147;-38
2022/10/21 08:56:15;;;;;;;1.72;1.62;;;;;;;7.93;67.31;101096.12;1683271;84;21030;-46
2022/10/21 08:58:43;;;;;;;1.60;1.47;;;;;;;8.01;67.55;101102.84;1677323;84;21042;-39
2022/10/21 09:01:22;;;;;;;3.25;1.77;;;;;;;8.08;66.49;101107.77;1684194;83;21044;-45
2022/10/21 09:04:18;;;;;;;2.10;1.80;;;;;;;8.14;66.71;101103.58;1681208;84;21466;-45
2022/10/21 09:07:18;;;;;;;2.00;1.80;;;;;;;8.21;66.62;101102.86;1685127;85;21004;-40
2022/10/21 09:09:51;;;;;;;2.05;1.80;;;;;;;8.28;66.31;101105.17;1598996;88;21167;-46
2022/10/21 09:12:26;;;;;;;3.12;1.60;;;;;;;8.42;66.75;101112.05;1579396;89;21720;-46
2022/10/21 09:15:23;;;;;;;2.22;2.02;;;;;;;8.47;65.38;101110.00;1619026;86;21036;-45
2022/10/21 09:18:11;;;;;;;1.70;1.60;;;;;;;8.40;64.90;101111.11;1635699;87;21179;-45
2022/10/21 09:21:08;;;;;;;2.25;1.85;;;;;;;8.44;65.88;101112.52;1628227;87;21068;-38
2022/10/21 09:23:52;;;;;;;1.85;1.62;;;;;;;8.48;64.93;101111.75;1596357;88;21149;-45
2022/10/21 09:26:43;;;;;;;2.85;1.65;;;;;;;8.47;62.75;101104.78;1613572;88;21081;-40
2022/10/21 09:29:35;;;;;;;45.88;32.55;;;;;;;8.46;59.97;101108.64;1627150;87;21119;-38
2022/10/21 09:32:25;;;;;;;8.45;6.10;;;;;;;8.42;59.86;101109.44;1636384;87;21116;-45
2022/10/21 09:35:20;;;;;;;3.37;1.80;;;;;;;8.37;60.90;101113.25;1632095;86;21518;-38
2022/10/21 09:37:56;;;;;;;3.52;1.50;;;;;;;8.39;61.55;101116.75;1627305;86;21058;-38
2022/10/21 09:40:25;;;;;;;1.92;1.75;;;;;;;8.46;61.92;101116.46;1621424;86;21112;-44
2022/10/21 09:42:57;;;;;;;2.52;1.70;;;;;;;8.53;62.35;101119.25;1616042;85;21125;-39
2022/10/21 09:45:34;;;;;;;5.95;1.72;;;;;;;8.62;62.75;101131.59;1660573;85;21463;-41
2022/10/21 09:48:14;;;;;;;9.58;2.15;;;;;;;8.71;62.13;101128.31;1661680;85;21133;-39
2022/10/21 09:50:46;;;;;;;1.70;1.60;;;;;;;8.80;61.71;101127.18;1632859;86;21038;-40
2022/10/21 09:53:17;;;;;;;2.75;1.60;;;;;;;8.94;61.54;101125.75;1641343;85;21079;-45
2022/10/21 09:55:45;;;;;;;3.42;1.90;;;;;;;9.11;61.21;101126.50;1686300;83;21641;-39
2022/10/21 09:58:26;;;;;;;2.70;1.67;;;;;;;9.35;60.42;101116.94;1685547;83;21628;-46
2022/10/21 10:00:53;;;;;;;3.05;1.85;;;;;;;9.63;60.51;101120.48;1685030;84;21581;-40
2022/10/21 10:03:42;;;;;;;2.20;1.87;;;;;;;10.08;59.54;101107.23;1681943;83;21069;-40
2022/10/21 10:06:09;;;;;;;3.98;1.67;;;;;;;10.58;57.80;101103.17;1648511;85;21123;-47
2022/10/21 10:08:39;;;;;;;3.02;1.67;;;;;;;11.13;56.11;101099.00;1566660;89;21114;-47
2022/10/21 10:11:13;;;;;;;2.83;2.40;;;;;;;11.63;54.75;101093.36;1624130;87;21080;-47
2022/10/21 10:13:51;;;;;;;4.53;1.60;;;;;;;12.14;52.62;101094.65;1610822;87;21118;-48
2022/10/21 10:16:31;;;;;;;3.60;1.37;;;;;;;12.56;50.77;101095.74;1628251;87;21092;-47
2022/10/21 10:19:20;;;;;;;2.45;1.95;;;;;;;12.91;50.47;101089.31;1627482;86;21154;-40
2022/10/21 10:22:09;;;;;;;3.90;1.72;;;;;;;13.36;49.17;101089.01;1634785;87;21067;-38
2022/10/21 10:24:36;;;;;;;5.35;2.10;;;;;;;13.82;48.05;101088.58;1613872;86;21655;-45
2022/10/21 10:27:04;;;;;;;9.33;2.70;;;;;;;14.29;47.49;101084.55;1655256;86;21882;-46
2022/10/21 10:29:33;;;;;;;6.90;1.50;;;;;;;14.63;46.07;101081.39;1632757;86;21031;-47
2022/10/21 10:32:00;;;;;;;4.47;1.47;;;;;;;14.82;43.14;101080.86;1630162;86;21508;-47
2022/10/21 10:34:37;;;;;;;2.62;1.32;;;;;;;14.98;43.61;101075.52;1613137;86;21004;-40
2022/10/21 10:37:16;;;;;;;2.83;1.30;;;;;;;15.24;42.21;101068.75;1622551;87;21038;-45
2022/10/21 10:39:46;;;;;;;2.75;1.20;;;;;;;15.51;42.78;101061.09;1617060;86;21026;-41
2022/10/21 10:42:21;;;;;;;2.37;1.47;;;;;;;16.15;42.08;101055.23;1658878;84;21524;-40
2022/10/21 10:44:54;;;;;;;1.30;1.20;;;;;;;16.75;40.40;101056.27;1693410;83;21021;-47
2022/10/21 10:47:30;;;;;;;2.05;1.40;;;;;;;17.00;39.07;101054.64;1686034;83;21680;-39
2022/10/21 10:49:57;;;;;;;1.47;1.37;;;;;;;16.88;38.55;101053.05;1690294;83;21467;-47
2022/10/21 10:52:25;;;;;;;1.40;1.30;;;;;;;16.55;38.42;101053.00;1681943;84;21100;-40
2022/10/21 10:55:13;;;;;;;5.78;1.20;;;;;;;16.19;39.31;101047.27;1680938;84;21018;-48
2022/10/21 10:57:42;;;;;;;2.33;1.50;;;;;;;15.91;40.83;101051.09;1691152;83;21097;-47
2022/10/21 11:00:20;;;;;;;1.55;1.35;;;;;;;15.78;41.44;101042.87;1685558;83;21339;-48
2022/10/21 11:03:03;;;;;;;4.10;1.57;;;;;;;15.62;40.63;101036.41;1688516;83;21116;-47
2022/10/21 11:05:45;;;;;;;1.60;1.40;;;;;;;15.24;40.42;101045.03;1692273;83;21411;-47
2022/10/21 11:08:38;;;;;;;1.82;1.37;;;;;;;14.60;40.21;101036.63;1685233;83;21089;-47
2022/10/21 11:11:13;;;;;;;2.77;1.32;;;;;;;14.01;41.70;101043.39;1664951;83;21470;-47
2022/10/21 11:13:41;;;;;;;1.65;1.47;;;;;;;13.66;42.46;101036.87;1690682;83;21723;-47
2022/10/21 11:16:37;;;;;;;5.05;1.25;;;;;;;13.30;43.07;101037.31;1696776;83;21012;-47
2022/10/21 11:19:19;;;;;;;1.57;1.17;;;;;;;12.98;43.85;101039.42;1623532;87;21090;-47
2022/10/21 11:21:52;;;;;;;1.15;0.90;;;;;;;12.60;43.95;101043.27;1620899;87;21126;-48
2022/10/21 11:24:44;;;;;;;2.87;1.42;;;;;;;12.35;44.86;101038.77;1621342;86;21093;-46
2022/10/21 11:27:38;;;;;;;1.75;1.12;;;;;;;12.13;45.05;101031.26;1624657;87;21082;-45
2022/10/21 11:30:18;;;;;;;;;;;;;;;11.95;46.27;101029.41;1632463;86;21001;-47
2022/10/21 11:33:00;;;;;;;1.55;1.37;;;;;;;11.96;45.27;101027.23;1628824;87;20112;-47
2022/10/21 11:35:50;;;;;;;2.83;1.00;;;;;;;11.72;45.42;101027.92;1611540;88;21093;-48
2022/10/21 11:38:41;;;;;;;1.90;1.10;;;;;;;11.45;46.22;101022.91;1618439;87;21117;-47
2022/10/21 11:41:39;;;;;;;7.12;5.40;;;;;;;11.29;46.90;101022.76;1624024;87;21002;-45
2022/10/21 11:44:26;;;;;;;4.35;3.40;;;;;;;11.12;47.31;101025.22;1631088;86;21757;-47
2022/10/21 11:47:04;;;;;;;3.45;2.30;;;;;;;10.90;48.16;101024.13;1627618;87;21021;-45
2022/10/21 11:50:05;;;;;;;2.80;1.82;;;;;;;10.78;47.77;101022.70;1638033;83;21035;-46
2022/10/21 11:52:52;;;;;;;1.87;1.25;;;;;;;10.66;47.75;101031.30;1647088;84;21114;-46
2022/10/21 11:55:56;;;;;;;1.75;1.20;;;;;;;10.62;48.72;101024.30;1652521;85;21580;-46
2022/10/21 11:58:40;;;;;;;4.03;1.80;;;;;;;10.63;49.55;101019.50;1605399;87;21157;-46
2022/10/21 12:01:15;;;;;;;2.05;1.55;;;;;;;10.63;49.99;101021.69;1612748;86;21105;-47
2022/10/21 12:04:19;;;;;;;1.85;1.60;;;;;;;10.66;49.88;101015.59;1633868;86;21041;-46
2022/10/21 12:07:02;;;;;;;2.45;1.12;;;;;;;10.73;50.24;101017.88;1628951;86;21094;-47
2022/10/21 12:09:47;;;;;;;3.33;1.22;;;;;;;10.74;49.84;101015.70;1605234;87;21121;-40
2022/10/21 12:12:18;;;;;;;1.22;0.98;;;;;;;10.77;49.97;101013.97;1583690;88;21052;-47
2022/10/21 12:14:54;;;;;;;2.00;1.20;;;;;;;10.86;49.85;101011.47;1565058;90;21043;-39
2022/10/21 12:17:22;;;;;;;2.27;1.50;;;;;;;10.86;50.00;101007.97;1584766;89;21161;-47
2022/10/21 12:20:06;;;;;;;1.35;1.00;;;;;;;10.83;49.99;101007.48;1566686;89;21531;-47
2022/10/21 12:22:33;;;;;;;2.40;1.05;;;;;;;10.87;49.92;101011.91;1560892;89;21140;-47
2022/10/21 12:25:17;;;;;;;2.85;1.05;;;;;;;10.91;49.62;101011.08;1575115;89;21065;-47
2022/10/21 12:27:49;;;;;;;1.42;1.32;;;;;;;10.89;48.45;101018.02;1595503;88;21136;-41
2022/10/21 12:30:22;;;;;;;3.00;1.05;;;;;;;10.85;48.43;101018.00;1618260;87;21033;-47
2022/10/21 12:32:57;;;;;;;2.60;1.12;;;;;;;10.86;48.60;101014.52;1610432;88;21056;-47
2022/10/21 12:35:43;;;;;;;1.47;1.12;;;;;;;10.93;48.24;101015.89;1620701;86;21009;-39
2022/10/21 12:38:21;;;;;;;1.67;1.15;;;;;;;10.92;48.19;101012.83;1637640;84;21154;-48
2022/10/21 12:40:49;;;;;;;1.90;1.20;;;;;;;10.93;48.84;101009.34;1606698;88;21061;-47
2022/10/21 12:43:22;;;;;;;1.22;1.12;;;;;;;10.99;48.43;101008.53;1621722;88;21092;-46
2022/10/21 12:46:07;;;;;;;1.65;1.20;;;;;;;10.96;48.10;101005.89;1609848;87;21057;-41
2022/10/21 12:48:41;;;;;;;4.60;1.45;;;;;;;10.90;48.74;101010.64;1626610;86;21120;-40
2022/10/21 12:51:21;;;;;;;2.65;1.27;;;;;;;10.87;48.47;101010.59;1616137;87;21594;-40
2022/10/21 12:54:07;;;;;;;3.10;1.55;;;;;;;10.90;49.05;101007.11;1612223;87;21447;-40
2022/10/21 12:56:44;;;;;;;1.62;1.20;;;;;;;11.07;49.23;101000.73;1618313;87;21659;-38
2022/10/21 12:59:31;;;;;;;2.00;1.25;;;;;;;11.25;48.48;101002.23;1589596;88;21109;-40
2022/10/21 13:02:09;;;;;;;2.22;1.55;;;;;;;11.23;48.58;101002.63;1611295;87;21057;-45
2022/10/21 13:04:43;;;;;;;2.77;1.47;;;;;;;11.16;48.39;100999.08;1624263;87;21343;-38
2022/10/21 13:07:19;;;;;;;2.25;1.60;;;;;;;11.10;48.37;100990.30;1605281;88;21055;-40
2022/10/21 13:09:57;;;;;;;2.42;1.52;;;;;;;11.10;48.84;100996.84;1608355;88;21549;-48
2022/10/21 13:12:28;;;;;;;3.30;1.40;;;;;;;11.18;48.40;101000.40;1571497;89;21138;-46
2022/10/21 13:15:23;;;;;;;3.08;1.67;;;;;;;11.25;48.33;100998.70;1625135;87;21021;-47
2022/10/21 13:17:53;;;;;;;2.40;1.30;;;;;;;11.26;48.63;100996.56;1637083;84;21655;-47
2022/10/21 13:20:26;;;;;;;3.33;1.70;;;;;;;11.33;48.39;100993.98;1686512;83;20987;-40
2022/10/21 13:22:57;;;;;;;3.35;1.50;;;;;;;11.29;48.27;100989.58;1673109;83;21064;-46
2022/10/21 13:25:26;;;;;;;2.77;1.55;;;;;;;11.25;48.39;100987.83;1692526;83;20970;-48
2022/10/21 13:28:01;;;;;;;5.15;2.35;;;;;;;11.23;48.42;100990.84;1667108;84;21060;-47
2022/10/21 13:30:36;;;;;;;1.87;1.72;;;;;;;11.16;48.65;100991.23;1679954;84;21088;-47
2022/10/21 13:33:04;;;;;;;4.87;2.37;;;;;;;11.16;48.49;100988.61;1684708;83;21097;-39
2022/10/21 13:35:45;;;;;;;2.20;1.95;;;;;;;11.24;48.41;100985.17;1684805;83;21011;-47
2022/10/21 13:38:24;;;;;;;3.20;2.42;;;;;;;11.31;48.17;100982.63;1658651;84;21105;-40
2022/10/21 13:41:00;;;;;;;3.47;2.40;;;;;;;11.48;47.80;100974.00;1684307;83;21121;-47
2022/10/21 13:43:41;;;;;;;4.25;2.58;;;;;;;11.75;47.26;100972.00;1682592;83;21049;-40
2022/10/21 13:46:17;;;;;;;3.12;2.35;;;;;;;11.82;46.66;100964.20;1691633;83;21054;-42
2022/10/21 13:48:46;;;;;;;5.90;2.33;;;;;;;11.77;46.90;100971.56;1696759;83;21571;-47
2022/10/21 13:51:24;;;;;;;2.20;2.00;;;;;;;11.72;47.07;100978.98;1701632;83;21078;-47
2022/10/21 13:54:14;;;;;;;2.35;1.90;;;;;;;11.73;46.60;100983.80;1691843;83;21117;-40
2022/10/21 13:56:41;;;;;;;3.77;1.80;;;;;;;11.70;46.39;100979.39;1671713;83;21081;-47
2022/10/21 13:59:21;;;;;;;3.80;2.02;;;;;;;11.67;46.58;100979.83;1694514;84;21066;-41
2022/10/21 14:01:53;;;;;;;6.45;2.70;;;;;;;11.64;46.74;100979.79;1695297;84;21095;-46
2022/10/21 14:04:23;;;;;;;4.67;2.47;;;;;;;11.57;47.20;100976.26;1699918;83;21085;-40
2022/10/21 14:07:03;;;;;;;4.80;2.60;;;;;;;11.63;47.18;100981.97;1693783;83;21049;-40
2022/10/21 14:09:34;;;;;;;4.72;2.83;;;;;;;11.84;47.01;100982.59;1672880;85;21030;-40
2022/10/21 14:12:08;;;;;;;13.88;8.28;;;;;;;12.26;46.38;100988.47;1664169;85;21078;-40
2022/10/21 14:14:37;;;;;;;7.97;3.85;;;;;;;12.55;46.00;100984.62;1665770;85;21067;-40
2022/10/21 14:17:10;;;;;;;4.30;2.90;;;;;;;12.58;45.67;100988.59;1676118;85;21102;-40
2022/10/21 14:19:37;;;;;;;5.22;2.45;;;;;;;12.75;45.27;100988.16;1692304;83;21042;-46
